sensor_id;sensor_type;location;lat;lon;timestamp;P1;durP1;ratioP1;P2;durP2;ratioP2
19643;SDS011;9970;-36.854;174.870;2023-08-31T00:01:54;3.10;;;2.90;;
19643;SDS011;9970;-36.854;174.870;2023-08-31T00:04:29;3.80;;;3.50;;
19643;SDS011;9970;-36.854;174.870;2023-08-31T00:07:02;2.87;;;2.77;;
19643;SDS011;9970;-36.854;174.870;2023-08-31T00:09:36;2.60;;;2.50;;
19643;SDS011;9970;-36.854;174.870;2023-08-31T00:12:09;4.00;;;3.70;;
19643;SDS011;9970;-36.854;174.870;2023-08-31T00:14:42;2.83;;;2.53;;
19643;SDS011;9970;-36.854;174.870;2023-08-31T00:17:15;2.40;;;2.30;;
19643;SDS011;9970;-36.854;174.870;2023-08-31T00:19:48;2.17;;;2.00;;
19643;SDS011;9970;-36.854;174.870;2023-08-31T00:22:21;2.37;;;2.27;;
19643;SDS011;9970;-36.854;174.870;2023-08-31T00:24:54;3.27;;;3.07;;
19643;SDS011;9970;-36.854;174.870;2023-08-31T00:27:27;2.37;;;2.03;;
19643;SDS011;9970;-36.854;174.870;2023-08-31T00:30:00;3.50;;;3.20;;
19643;SDS011;9970;-36.854;174.870;2023-08-31T00:32:33;2.87;;;2.67;;
19643;SDS011;9970;-36.854;174.870;2023-08-31T00:35:06;3.20;;;3.00;;
19643;SDS011;9970;-36.854;174.870;2023-08-31T00:37:39;3.00;;;2.43;;
19643;SDS011;9970;-36.854;174.870;2023-08-31T00:40:12;2.70;;;2.50;;
19643;SDS011;9970;-36.854;174.870;2023-08-31T00:42:45;2.77;;;2.57;;
19643;SDS011;9970;-36.854;174.870;2023-08-31T00:45:18;3.10;;;3.00;;
19643;SDS011;9970;-36.854;174.870;2023-08-31T00:47:51;2.90;;;2.80;;
19643;SDS011;9970;-36.854;174.870;2023-08-31T00:50:24;4.30;;;3.23;;
19643;SDS011;9970;-36.854;174.870;2023-08-31T00:52:57;2.40;;;2.30;;
19643;SDS011;9970;-36.854;174.870;2023-08-31T00:55:30;4.07;;;3.40;;
19643;SDS011;9970;-36.854;174.870;2023-08-31T00:58:03;6.27;;;2.90;;
19643;SDS011;9970;-36.854;174.870;2023-08-31T01:06:12;3.13;;;2.50;;
19643;SDS011;9970;-36.854;174.870;2023-08-31T01:09:06;2.40;;;2.27;;
19643;SDS011;9970;-36.854;174.870;2023-08-31T01:11:52;2.97;;;2.53;;
19643;SDS011;9970;-36.854;174.870;2023-08-31T01:14:25;2.57;;;2.40;;
19643;SDS011;9970;-36.854;174.870;2023-08-31T01:16:59;2.60;;;2.50;;
19643;SDS011;9970;-36.854;174.870;2023-08-31T01:19:44;2.40;;;2.30;;
19643;SDS011;9970;-36.854;174.870;2023-08-31T01:25:17;1.90;;;1.90;;
19643;SDS011;9970;-36.854;174.870;2023-08-31T01:27:50;4.83;;;2.60;;
19643;SDS011;9970;-36.854;174.870;2023-08-31T01:30:24;2.77;;;2.57;;
19643;SDS011;9970;-36.854;174.870;2023-08-31T01:32:58;6.93;;;2.60;;
19643;SDS011;9970;-36.854;174.870;2023-08-31T01:35:46;2.77;;;2.57;;
19643;SDS011;9970;-36.854;174.870;2023-08-31T01:38:24;3.10;;;2.90;;
19643;SDS011;9970;-36.854;174.870;2023-08-31T01:41:10;4.90;;;2.80;;
19643;SDS011;9970;-36.854;174.870;2023-08-31T01:43:44;6.50;;;3.97;;
19643;SDS011;9970;-36.854;174.870;2023-08-31T01:49:12;3.13;;;2.93;;
19643;SDS011;9970;-36.854;174.870;2023-08-31T01:51:48;2.27;;;2.10;;
19643;SDS011;9970;-36.854;174.870;2023-08-31T01:54:21;2.47;;;2.37;;
19643;SDS011;9970;-36.854;174.870;2023-08-31T01:56:54;3.73;;;2.23;;
19643;SDS011;9970;-36.854;174.870;2023-08-31T01:59:27;2.23;;;2.10;;
19643;SDS011;9970;-36.854;174.870;2023-08-31T02:02:00;2.10;;;2.10;;
19643;SDS011;9970;-36.854;174.870;2023-08-31T02:04:33;6.13;;;2.27;;
19643;SDS011;9970;-36.854;174.870;2023-08-31T02:07:06;3.47;;;2.23;;
19643;SDS011;9970;-36.854;174.870;2023-08-31T02:09:39;2.90;;;2.20;;
19643;SDS011;9970;-36.854;174.870;2023-08-31T02:12:13;3.17;;;2.30;;
19643;SDS011;9970;-36.854;174.870;2023-08-31T02:14:46;2.27;;;2.17;;
19643;SDS011;9970;-36.854;174.870;2023-08-31T02:17:19;5.43;;;2.60;;
19643;SDS011;9970;-36.854;174.870;2023-08-31T02:19:52;3.10;;;2.63;;
19643;SDS011;9970;-36.854;174.870;2023-08-31T02:22:25;2.13;;;2.00;;
19643;SDS011;9970;-36.854;174.870;2023-08-31T02:24:58;2.37;;;2.27;;
19643;SDS011;9970;-36.854;174.870;2023-08-31T02:27:31;3.80;;;2.00;;
19643;SDS011;9970;-36.854;174.870;2023-08-31T02:30:04;2.40;;;2.30;;
19643;SDS011;9970;-36.854;174.870;2023-08-31T02:32:38;2.27;;;2.17;;
19643;SDS011;9970;-36.854;174.870;2023-08-31T02:35:12;1.60;;;1.50;;
19643;SDS011;9970;-36.854;174.870;2023-08-31T02:37:45;1.43;;;1.43;;
19643;SDS011;9970;-36.854;174.870;2023-08-31T02:40:17;1.83;;;1.73;;
19643;SDS011;9970;-36.854;174.870;2023-08-31T02:42:53;2.00;;;1.93;;
19643;SDS011;9970;-36.854;174.870;2023-08-31T02:45:26;1.93;;;1.83;;
19643;SDS011;9970;-36.854;174.870;2023-08-31T02:47:59;1.27;;;1.17;;
19643;SDS011;9970;-36.854;174.870;2023-08-31T02:50:36;1.23;;;1.13;;
19643;SDS011;9970;-36.854;174.870;2023-08-31T02:53:10;1.27;;;1.27;;
19643;SDS011;9970;-36.854;174.870;2023-08-31T02:55:43;1.47;;;1.47;;
19643;SDS011;9970;-36.854;174.870;2023-08-31T02:58:15;1.10;;;1.10;;
19643;SDS011;9970;-36.854;174.870;2023-08-31T03:00:48;1.30;;;1.30;;
19643;SDS011;9970;-36.854;174.870;2023-08-31T03:03:22;1.03;;;1.03;;
19643;SDS011;9970;-36.854;174.870;2023-08-31T03:05:55;1.17;;;1.17;;
19643;SDS011;9970;-36.854;174.870;2023-08-31T03:08:28;2.33;;;1.30;;
19643;SDS011;9970;-36.854;174.870;2023-08-31T03:11:05;1.30;;;1.30;;
19643;SDS011;9970;-36.854;174.870;2023-08-31T03:13:38;1.50;;;1.17;;
19643;SDS011;9970;-36.854;174.870;2023-08-31T03:16:11;9.00;;;1.60;;
19643;SDS011;9970;-36.854;174.870;2023-08-31T03:18:44;1.00;;;1.00;;
19643;SDS011;9970;-36.854;174.870;2023-08-31T03:21:18;1.43;;;1.33;;
19643;SDS011;9970;-36.854;174.870;2023-08-31T03:23:50;3.43;;;1.30;;
19643;SDS011;9970;-36.854;174.870;2023-08-31T03:26:23;1.07;;;1.07;;
19643;SDS011;9970;-36.854;174.870;2023-08-31T03:28:56;1.90;;;0.93;;
19643;SDS011;9970;-36.854;174.870;2023-08-31T03:31:29;2.60;;;1.10;;
19643;SDS011;9970;-36.854;174.870;2023-08-31T03:34:03;1.27;;;1.27;;
19643;SDS011;9970;-36.854;174.870;2023-08-31T03:36:35;1.47;;;1.47;;
19643;SDS011;9970;-36.854;174.870;2023-08-31T03:39:09;2.67;;;1.10;;
19643;SDS011;9970;-36.854;174.870;2023-08-31T03:41:42;1.40;;;1.30;;
19643;SDS011;9970;-36.854;174.870;2023-08-31T03:44:15;1.57;;;0.90;;
19643;SDS011;9970;-36.854;174.870;2023-08-31T03:46:47;1.10;;;1.10;;
19643;SDS011;9970;-36.854;174.870;2023-08-31T03:49:20;0.90;;;0.90;;
19643;SDS011;9970;-36.854;174.870;2023-08-31T03:51:58;2.93;;;1.20;;
19643;SDS011;9970;-36.854;174.870;2023-08-31T03:54:34;0.80;;;0.80;;
19643;SDS011;9970;-36.854;174.870;2023-08-31T03:57:07;1.00;;;1.00;;
19643;SDS011;9970;-36.854;174.870;2023-08-31T03:59:40;0.80;;;0.80;;
19643;SDS011;9970;-36.854;174.870;2023-08-31T04:02:13;1.63;;;1.53;;
19643;SDS011;9970;-36.854;174.870;2023-08-31T04:04:46;0.80;;;0.80;;
19643;SDS011;9970;-36.854;174.870;2023-08-31T04:07:18;1.10;;;1.10;;
19643;SDS011;9970;-36.854;174.870;2023-08-31T04:09:52;1.20;;;1.20;;
19643;SDS011;9970;-36.854;174.870;2023-08-31T04:12:25;2.50;;;1.03;;
19643;SDS011;9970;-36.854;174.870;2023-08-31T04:14:59;1.00;;;1.00;;
19643;SDS011;9970;-36.854;174.870;2023-08-31T04:17:33;1.00;;;1.00;;
19643;SDS011;9970;-36.854;174.870;2023-08-31T04:20:06;0.93;;;0.90;;
19643;SDS011;9970;-36.854;174.870;2023-08-31T04:22:39;1.30;;;1.30;;
19643;SDS011;9970;-36.854;174.870;2023-08-31T04:25:13;1.50;;;1.00;;
19643;SDS011;9970;-36.854;174.870;2023-08-31T04:27:46;1.57;;;1.13;;
19643;SDS011;9970;-36.854;174.870;2023-08-31T04:30:19;0.90;;;0.90;;
19643;SDS011;9970;-36.854;174.870;2023-08-31T04:32:52;1.20;;;1.07;;
19643;SDS011;9970;-36.854;174.870;2023-08-31T04:35:25;1.57;;;1.20;;
19643;SDS011;9970;-36.854;174.870;2023-08-31T04:37:58;1.07;;;1.07;;
19643;SDS011;9970;-36.854;174.870;2023-08-31T04:40:31;1.10;;;1.10;;
19643;SDS011;9970;-36.854;174.870;2023-08-31T04:43:09;1.67;;;1.47;;
19643;SDS011;9970;-36.854;174.870;2023-08-31T04:45:43;1.17;;;1.17;;
19643;SDS011;9970;-36.854;174.870;2023-08-31T04:48:16;2.60;;;1.50;;
19643;SDS011;9970;-36.854;174.870;2023-08-31T04:50:49;1.10;;;1.10;;
19643;SDS011;9970;-36.854;174.870;2023-08-31T04:53:28;1.43;;;1.33;;
19643;SDS011;9970;-36.854;174.870;2023-08-31T04:56:00;1.43;;;1.43;;
19643;SDS011;9970;-36.854;174.870;2023-08-31T04:58:33;1.00;;;1.00;;
19643;SDS011;9970;-36.854;174.870;2023-08-31T05:01:06;1.03;;;1.00;;
19643;SDS011;9970;-36.854;174.870;2023-08-31T05:03:39;1.23;;;0.90;;
19643;SDS011;9970;-36.854;174.870;2023-08-31T05:06:12;0.87;;;0.87;;
19643;SDS011;9970;-36.854;174.870;2023-08-31T05:08:46;1.80;;;0.80;;
19643;SDS011;9970;-36.854;174.870;2023-08-31T05:11:19;0.80;;;0.80;;
19643;SDS011;9970;-36.854;174.870;2023-08-31T05:13:52;1.07;;;1.07;;
19643;SDS011;9970;-36.854;174.870;2023-08-31T05:16:25;1.87;;;1.00;;
19643;SDS011;9970;-36.854;174.870;2023-08-31T05:18:58;0.93;;;0.93;;
19643;SDS011;9970;-36.854;174.870;2023-08-31T05:21:32;1.40;;;1.40;;
19643;SDS011;9970;-36.854;174.870;2023-08-31T05:24:05;1.33;;;1.23;;
19643;SDS011;9970;-36.854;174.870;2023-08-31T05:26:38;0.90;;;0.90;;
19643;SDS011;9970;-36.854;174.870;2023-08-31T05:29:11;0.90;;;0.90;;
19643;SDS011;9970;-36.854;174.870;2023-08-31T05:31:44;1.00;;;1.00;;
19643;SDS011;9970;-36.854;174.870;2023-08-31T05:34:20;1.53;;;1.43;;
19643;SDS011;9970;-36.854;174.870;2023-08-31T05:36:54;4.43;;;1.50;;
19643;SDS011;9970;-36.854;174.870;2023-08-31T05:39:27;1.87;;;1.70;;
19643;SDS011;9970;-36.854;174.870;2023-08-31T05:42:19;1.90;;;1.80;;
19643;SDS011;9970;-36.854;174.870;2023-08-31T05:45:12;2.07;;;2.00;;
19643;SDS011;9970;-36.854;174.870;2023-08-31T05:47:45;2.90;;;1.90;;
19643;SDS011;9970;-36.854;174.870;2023-08-31T05:50:19;2.00;;;1.90;;
19643;SDS011;9970;-36.854;174.870;2023-08-31T05:52:52;1.90;;;1.80;;
19643;SDS011;9970;-36.854;174.870;2023-08-31T05:55:26;1.83;;;1.73;;
19643;SDS011;9970;-36.854;174.870;2023-08-31T05:57:59;2.87;;;1.73;;
19643;SDS011;9970;-36.854;174.870;2023-08-31T06:00:32;1.70;;;1.60;;
19643;SDS011;9970;-36.854;174.870;2023-08-31T06:03:05;6.40;;;2.17;;
19643;SDS011;9970;-36.854;174.870;2023-08-31T06:05:40;3.33;;;2.17;;
19643;SDS011;9970;-36.854;174.870;2023-08-31T06:08:12;2.17;;;2.07;;
19643;SDS011;9970;-36.854;174.870;2023-08-31T06:10:46;2.07;;;1.97;;
19643;SDS011;9970;-36.854;174.870;2023-08-31T06:13:19;1.43;;;1.43;;
19643;SDS011;9970;-36.854;174.870;2023-08-31T06:15:52;4.17;;;1.87;;
19643;SDS011;9970;-36.854;174.870;2023-08-31T06:18:25;2.07;;;1.97;;
19643;SDS011;9970;-36.854;174.870;2023-08-31T06:20:59;1.83;;;1.77;;
19643;SDS011;9970;-36.854;174.870;2023-08-31T06:23:32;2.00;;;1.90;;
19643;SDS011;9970;-36.854;174.870;2023-08-31T06:26:05;1.90;;;1.80;;
19643;SDS011;9970;-36.854;174.870;2023-08-31T06:28:38;1.57;;;1.57;;
19643;SDS011;9970;-36.854;174.870;2023-08-31T06:31:11;2.17;;;2.07;;
19643;SDS011;9970;-36.854;174.870;2023-08-31T06:33:48;2.77;;;2.57;;
19643;SDS011;9970;-36.854;174.870;2023-08-31T06:36:21;2.63;;;2.43;;
19643;SDS011;9970;-36.854;174.870;2023-08-31T06:38:54;2.70;;;2.47;;
19643;SDS011;9970;-36.854;174.870;2023-08-31T06:41:28;2.80;;;2.70;;
19643;SDS011;9970;-36.854;174.870;2023-08-31T06:44:01;4.10;;;2.80;;
19643;SDS011;9970;-36.854;174.870;2023-08-31T06:46:39;3.30;;;3.20;;
19643;SDS011;9970;-36.854;174.870;2023-08-31T06:49:12;3.27;;;2.97;;
19643;SDS011;9970;-36.854;174.870;2023-08-31T06:51:45;4.03;;;3.77;;
19643;SDS011;9970;-36.854;174.870;2023-08-31T06:54:19;5.60;;;5.20;;
19643;SDS011;9970;-36.854;174.870;2023-08-31T06:56:52;4.80;;;4.50;;
19643;SDS011;9970;-36.854;174.870;2023-08-31T06:59:25;4.80;;;4.40;;
19643;SDS011;9970;-36.854;174.870;2023-08-31T07:01:58;4.03;;;3.80;;
19643;SDS011;9970;-36.854;174.870;2023-08-31T07:04:31;4.47;;;4.20;;
19643;SDS011;9970;-36.854;174.870;2023-08-31T07:07:04;4.20;;;3.23;;
19643;SDS011;9970;-36.854;174.870;2023-08-31T07:09:38;3.97;;;3.43;;
19643;SDS011;9970;-36.854;174.870;2023-08-31T07:12:11;8.07;;;3.57;;
19643;SDS011;9970;-36.854;174.870;2023-08-31T07:14:44;5.30;;;3.13;;
19643;SDS011;9970;-36.854;174.870;2023-08-31T07:17:20;4.17;;;3.80;;
19643;SDS011;9970;-36.854;174.870;2023-08-31T07:19:57;2.77;;;2.67;;
19643;SDS011;9970;-36.854;174.870;2023-08-31T07:22:30;3.10;;;2.97;;
19643;SDS011;9970;-36.854;174.870;2023-08-31T07:25:05;3.30;;;2.97;;
19643;SDS011;9970;-36.854;174.870;2023-08-31T07:27:38;3.90;;;3.03;;
19643;SDS011;9970;-36.854;174.870;2023-08-31T07:30:11;3.50;;;3.30;;
19643;SDS011;9970;-36.854;174.870;2023-08-31T07:32:44;3.73;;;2.47;;
19643;SDS011;9970;-36.854;174.870;2023-08-31T07:35:17;1.90;;;1.80;;
19643;SDS011;9970;-36.854;174.870;2023-08-31T07:37:50;1.80;;;1.80;;
19643;SDS011;9970;-36.854;174.870;2023-08-31T07:40:23;2.23;;;2.23;;
19643;SDS011;9970;-36.854;174.870;2023-08-31T07:42:56;1.80;;;1.80;;
19643;SDS011;9970;-36.854;174.870;2023-08-31T07:45:29;3.03;;;2.40;;
19643;SDS011;9970;-36.854;174.870;2023-08-31T07:48:02;2.40;;;2.30;;
19643;SDS011;9970;-36.854;174.870;2023-08-31T07:50:36;2.63;;;2.43;;
19643;SDS011;9970;-36.854;174.870;2023-08-31T07:53:10;4.83;;;3.80;;
19643;SDS011;9970;-36.854;174.870;2023-08-31T07:55:53;3.60;;;3.40;;
19643;SDS011;9970;-36.854;174.870;2023-08-31T07:58:24;2.50;;;2.40;;
19643;SDS011;9970;-36.854;174.870;2023-08-31T08:00:57;3.37;;;3.20;;
19643;SDS011;9970;-36.854;174.870;2023-08-31T08:03:30;2.60;;;2.60;;
19643;SDS011;9970;-36.854;174.870;2023-08-31T08:06:03;2.97;;;2.87;;
19643;SDS011;9970;-36.854;174.870;2023-08-31T08:08:36;4.67;;;4.20;;
19643;SDS011;9970;-36.854;174.870;2023-08-31T08:11:10;6.37;;;5.87;;
19643;SDS011;9970;-36.854;174.870;2023-08-31T08:13:42;5.30;;;5.00;;
19643;SDS011;9970;-36.854;174.870;2023-08-31T08:16:15;4.90;;;4.50;;
19643;SDS011;9970;-36.854;174.870;2023-08-31T08:18:49;4.10;;;3.70;;
19643;SDS011;9970;-36.854;174.870;2023-08-31T08:21:22;3.97;;;3.77;;
19643;SDS011;9970;-36.854;174.870;2023-08-31T08:23:55;4.43;;;4.13;;
19643;SDS011;9970;-36.854;174.870;2023-08-31T08:26:28;4.03;;;3.80;;
19643;SDS011;9970;-36.854;174.870;2023-08-31T08:29:01;5.00;;;4.60;;
19643;SDS011;9970;-36.854;174.870;2023-08-31T08:31:34;5.70;;;5.23;;
19643;SDS011;9970;-36.854;174.870;2023-08-31T08:34:07;8.50;;;6.77;;
19643;SDS011;9970;-36.854;174.870;2023-08-31T08:36:40;6.80;;;5.97;;
19643;SDS011;9970;-36.854;174.870;2023-08-31T08:39:17;9.20;;;6.50;;
19643;SDS011;9970;-36.854;174.870;2023-08-31T08:41:50;6.50;;;5.67;;
19643;SDS011;9970;-36.854;174.870;2023-08-31T08:44:24;6.27;;;5.80;;
19643;SDS011;9970;-36.854;174.870;2023-08-31T08:46:59;10.97;;;8.47;;
19643;SDS011;9970;-36.854;174.870;2023-08-31T08:49:33;11.03;;;8.70;;
19643;SDS011;9970;-36.854;174.870;2023-08-31T08:52:06;10.80;;;7.80;;
19643;SDS011;9970;-36.854;174.870;2023-08-31T08:54:40;11.00;;;9.90;;
19643;SDS011;9970;-36.854;174.870;2023-08-31T08:57:14;11.20;;;9.80;;
19643;SDS011;9970;-36.854;174.870;2023-08-31T08:59:47;10.00;;;7.77;;
19643;SDS011;9970;-36.854;174.870;2023-08-31T09:02:20;5.67;;;5.27;;
19643;SDS011;9970;-36.854;174.870;2023-08-31T09:04:54;4.87;;;4.53;;
19643;SDS011;9970;-36.854;174.870;2023-08-31T09:07:29;5.93;;;5.40;;
19643;SDS011;9970;-36.854;174.870;2023-08-31T09:10:02;8.27;;;5.90;;
19643;SDS011;9970;-36.854;174.870;2023-08-31T09:12:36;6.57;;;6.07;;
19643;SDS011;9970;-36.854;174.870;2023-08-31T09:15:09;7.23;;;6.53;;
19643;SDS011;9970;-36.854;174.870;2023-08-31T09:17:42;6.07;;;5.50;;
19643;SDS011;9970;-36.854;174.870;2023-08-31T09:20:15;7.37;;;6.57;;
19643;SDS011;9970;-36.854;174.870;2023-08-31T09:22:48;8.60;;;5.80;;
19643;SDS011;9970;-36.854;174.870;2023-08-31T09:25:23;9.83;;;5.90;;
19643;SDS011;9970;-36.854;174.870;2023-08-31T09:27:55;8.30;;;5.53;;
19643;SDS011;9970;-36.854;174.870;2023-08-31T09:30:33;8.77;;;6.70;;
19643;SDS011;9970;-36.854;174.870;2023-08-31T09:33:04;6.90;;;6.30;;
19643;SDS011;9970;-36.854;174.870;2023-08-31T09:35:39;6.93;;;6.30;;
19643;SDS011;9970;-36.854;174.870;2023-08-31T09:38:12;8.83;;;6.20;;
19643;SDS011;9970;-36.854;174.870;2023-08-31T09:40:46;9.43;;;7.53;;
19643;SDS011;9970;-36.854;174.870;2023-08-31T09:43:19;7.60;;;6.83;;
19643;SDS011;9970;-36.854;174.870;2023-08-31T09:45:53;7.20;;;6.53;;
19643;SDS011;9970;-36.854;174.870;2023-08-31T09:48:27;11.87;;;6.90;;
19643;SDS011;9970;-36.854;174.870;2023-08-31T09:51:00;7.57;;;6.80;;
19643;SDS011;9970;-36.854;174.870;2023-08-31T09:53:39;7.50;;;6.60;;
19643;SDS011;9970;-36.854;174.870;2023-08-31T09:56:13;9.63;;;6.67;;
19643;SDS011;9970;-36.854;174.870;2023-08-31T09:58:48;7.87;;;6.20;;
19643;SDS011;9970;-36.854;174.870;2023-08-31T10:01:21;8.23;;;5.70;;
19643;SDS011;9970;-36.854;174.870;2023-08-31T10:03:55;5.90;;;5.27;;
19643;SDS011;9970;-36.854;174.870;2023-08-31T10:06:29;9.53;;;5.80;;
19643;SDS011;9970;-36.854;174.870;2023-08-31T10:09:03;5.67;;;4.87;;
19643;SDS011;9970;-36.854;174.870;2023-08-31T10:11:38;6.27;;;5.07;;
19643;SDS011;9970;-36.854;174.870;2023-08-31T10:14:12;4.80;;;4.50;;
19643;SDS011;9970;-36.854;174.870;2023-08-31T10:16:46;5.30;;;4.87;;
19643;SDS011;9970;-36.854;174.870;2023-08-31T10:19:19;8.30;;;4.60;;
19643;SDS011;9970;-36.854;174.870;2023-08-31T10:21:53;5.57;;;4.63;;
19643;SDS011;9970;-36.854;174.870;2023-08-31T10:27:38;9.07;;;5.53;;
19643;SDS011;9970;-36.854;174.870;2023-08-31T10:30:16;6.97;;;6.33;;
19643;SDS011;9970;-36.854;174.870;2023-08-31T10:33:19;8.23;;;7.33;;
19643;SDS011;9970;-36.854;174.870;2023-08-31T10:35:41;7.93;;;6.00;;
19643;SDS011;9970;-36.854;174.870;2023-08-31T10:38:28;8.40;;;6.13;;
19643;SDS011;9970;-36.854;174.870;2023-08-31T10:41:02;15.90;;;5.80;;
19643;SDS011;9970;-36.854;174.870;2023-08-31T10:43:55;8.30;;;7.33;;
19643;SDS011;9970;-36.854;174.870;2023-08-31T10:46:16;6.73;;;5.93;;
19643;SDS011;9970;-36.854;174.870;2023-08-31T10:49:01;8.57;;;5.93;;
19643;SDS011;9970;-36.854;174.870;2023-08-31T10:51:45;9.60;;;7.53;;
19643;SDS011;9970;-36.854;174.870;2023-08-31T11:05:10;10.00;;;9.00;;
19643;SDS011;9970;-36.854;174.870;2023-08-31T11:07:49;11.13;;;7.13;;
19643;SDS011;9970;-36.854;174.870;2023-08-31T11:10:22;12.00;;;8.00;;
19643;SDS011;9970;-36.854;174.870;2023-08-31T11:12:59;12.37;;;8.00;;
19643;SDS011;9970;-36.854;174.870;2023-08-31T11:15:32;9.17;;;8.23;;
19643;SDS011;9970;-36.854;174.870;2023-08-31T11:18:05;6.87;;;6.07;;
19643;SDS011;9970;-36.854;174.870;2023-08-31T11:20:38;10.97;;;7.20;;
19643;SDS011;9970;-36.854;174.870;2023-08-31T11:23:11;8.20;;;7.50;;
19643;SDS011;9970;-36.854;174.870;2023-08-31T11:25:45;10.30;;;7.20;;
19643;SDS011;9970;-36.854;174.870;2023-08-31T11:28:19;7.63;;;6.53;;
19643;SDS011;9970;-36.854;174.870;2023-08-31T11:30:52;6.43;;;6.00;;
19643;SDS011;9970;-36.854;174.870;2023-08-31T11:33:27;8.20;;;6.40;;
19643;SDS011;9970;-36.854;174.870;2023-08-31T11:36:00;11.23;;;6.63;;
19643;SDS011;9970;-36.854;174.870;2023-08-31T11:38:33;8.07;;;6.63;;
19643;SDS011;9970;-36.854;174.870;2023-08-31T11:41:10;7.83;;;6.47;;
19643;SDS011;9970;-36.854;174.870;2023-08-31T11:43:44;7.60;;;6.50;;
19643;SDS011;9970;-36.854;174.870;2023-08-31T11:46:17;11.57;;;7.83;;
19643;SDS011;9970;-36.854;174.870;2023-08-31T11:48:50;7.57;;;6.80;;
19643;SDS011;9970;-36.854;174.870;2023-08-31T11:51:24;8.30;;;6.73;;
19643;SDS011;9970;-36.854;174.870;2023-08-31T11:53:58;6.87;;;6.20;;
19643;SDS011;9970;-36.854;174.870;2023-08-31T11:56:44;7.33;;;6.27;;
19643;SDS011;9970;-36.854;174.870;2023-08-31T11:59:22;9.67;;;6.10;;
19643;SDS011;9970;-36.854;174.870;2023-08-31T12:01:55;12.40;;;7.00;;
19643;SDS011;9970;-36.854;174.870;2023-08-31T12:04:29;9.60;;;6.60;;
19643;SDS011;9970;-36.854;174.870;2023-08-31T12:07:02;8.17;;;6.90;;
19643;SDS011;9970;-36.854;174.870;2023-08-31T12:09:35;9.83;;;5.80;;
19643;SDS011;9970;-36.854;174.870;2023-08-31T12:12:17;6.50;;;5.90;;
19643;SDS011;9970;-36.854;174.870;2023-08-31T12:15:06;6.20;;;5.50;;
19643;SDS011;9970;-36.854;174.870;2023-08-31T12:17:38;6.93;;;6.20;;
19643;SDS011;9970;-36.854;174.870;2023-08-31T12:20:11;6.30;;;5.70;;
19643;SDS011;9970;-36.854;174.870;2023-08-31T12:22:45;5.83;;;5.33;;
19643;SDS011;9970;-36.854;174.870;2023-08-31T12:25:21;5.40;;;5.10;;
19643;SDS011;9970;-36.854;174.870;2023-08-31T12:27:58;7.03;;;6.30;;
19643;SDS011;9970;-36.854;174.870;2023-08-31T12:30:32;6.07;;;5.60;;
19643;SDS011;9970;-36.854;174.870;2023-08-31T12:33:04;6.17;;;5.70;;
19643;SDS011;9970;-36.854;174.870;2023-08-31T12:35:37;7.83;;;5.77;;
19643;SDS011;9970;-36.854;174.870;2023-08-31T12:38:11;5.60;;;5.10;;
19643;SDS011;9970;-36.854;174.870;2023-08-31T12:40:44;5.63;;;5.13;;
19643;SDS011;9970;-36.854;174.870;2023-08-31T12:43:17;5.87;;;4.20;;
19643;SDS011;9970;-36.854;174.870;2023-08-31T12:45:49;5.27;;;4.77;;
19643;SDS011;9970;-36.854;174.870;2023-08-31T12:48:22;7.87;;;4.77;;
19643;SDS011;9970;-36.854;174.870;2023-08-31T12:50:56;5.43;;;3.80;;
19643;SDS011;9970;-36.854;174.870;2023-08-31T12:53:28;6.10;;;4.47;;
19643;SDS011;9970;-36.854;174.870;2023-08-31T12:56:01;7.17;;;4.23;;
19643;SDS011;9970;-36.854;174.870;2023-08-31T12:58:36;3.93;;;3.60;;
19643;SDS011;9970;-36.854;174.870;2023-08-31T13:01:08;4.63;;;4.20;;
19643;SDS011;9970;-36.854;174.870;2023-08-31T13:03:41;7.20;;;5.07;;
19643;SDS011;9970;-36.854;174.870;2023-08-31T13:06:14;4.40;;;4.10;;
19643;SDS011;9970;-36.854;174.870;2023-08-31T13:08:47;4.03;;;3.70;;
19643;SDS011;9970;-36.854;174.870;2023-08-31T13:11:20;3.80;;;3.50;;
19643;SDS011;9970;-36.854;174.870;2023-08-31T13:13:57;4.37;;;3.47;;
19643;SDS011;9970;-36.854;174.870;2023-08-31T13:16:30;3.30;;;3.00;;
19643;SDS011;9970;-36.854;174.870;2023-08-31T13:19:04;3.30;;;3.13;;
19643;SDS011;9970;-36.854;174.870;2023-08-31T13:21:37;3.40;;;3.20;;
19643;SDS011;9970;-36.854;174.870;2023-08-31T13:24:10;3.57;;;3.37;;
19643;SDS011;9970;-36.854;174.870;2023-08-31T13:26:43;3.80;;;3.00;;
19643;SDS011;9970;-36.854;174.870;2023-08-31T13:29:16;4.23;;;3.90;;
19643;SDS011;9970;-36.854;174.870;2023-08-31T13:31:50;3.37;;;3.07;;
19643;SDS011;9970;-36.854;174.870;2023-08-31T13:34:23;3.20;;;3.10;;
19643;SDS011;9970;-36.854;174.870;2023-08-31T13:36:55;3.80;;;3.37;;
19643;SDS011;9970;-36.854;174.870;2023-08-31T13:39:30;4.77;;;2.73;;
19643;SDS011;9970;-36.854;174.870;2023-08-31T13:42:04;4.80;;;3.20;;
19643;SDS011;9970;-36.854;174.870;2023-08-31T13:44:37;3.07;;;2.87;;
19643;SDS011;9970;-36.854;174.870;2023-08-31T13:47:13;2.67;;;2.57;;
19643;SDS011;9970;-36.854;174.870;2023-08-31T13:49:46;4.10;;;3.90;;
19643;SDS011;9970;-36.854;174.870;2023-08-31T13:52:19;2.60;;;2.40;;
19643;SDS011;9970;-36.854;174.870;2023-08-31T13:54:51;3.47;;;3.17;;
19643;SDS011;9970;-36.854;174.870;2023-08-31T13:57:24;3.10;;;3.00;;
19643;SDS011;9970;-36.854;174.870;2023-08-31T13:59:57;2.27;;;2.17;;
19643;SDS011;9970;-36.854;174.870;2023-08-31T14:02:30;2.43;;;2.23;;
19643;SDS011;9970;-36.854;174.870;2023-08-31T14:05:04;2.60;;;2.50;;
19643;SDS011;9970;-36.854;174.870;2023-08-31T14:07:38;2.33;;;2.23;;
19643;SDS011;9970;-36.854;174.870;2023-08-31T14:10:11;1.90;;;1.80;;
19643;SDS011;9970;-36.854;174.870;2023-08-31T14:12:45;3.00;;;2.80;;
19643;SDS011;9970;-36.854;174.870;2023-08-31T14:15:17;2.40;;;2.30;;
19643;SDS011;9970;-36.854;174.870;2023-08-31T14:17:51;2.30;;;2.30;;
19643;SDS011;9970;-36.854;174.870;2023-08-31T14:20:23;1.83;;;1.83;;
19643;SDS011;9970;-36.854;174.870;2023-08-31T14:22:57;2.40;;;2.20;;
19643;SDS011;9970;-36.854;174.870;2023-08-31T14:25:33;2.80;;;2.60;;
19643;SDS011;9970;-36.854;174.870;2023-08-31T14:28:07;6.67;;;3.03;;
19643;SDS011;9970;-36.854;174.870;2023-08-31T14:30:41;2.17;;;2.07;;
19643;SDS011;9970;-36.854;174.870;2023-08-31T14:33:14;2.73;;;2.53;;
19643;SDS011;9970;-36.854;174.870;2023-08-31T14:35:52;2.30;;;2.20;;
19643;SDS011;9970;-36.854;174.870;2023-08-31T14:38:25;2.30;;;2.00;;
19643;SDS011;9970;-36.854;174.870;2023-08-31T14:40:58;3.20;;;2.90;;
19643;SDS011;9970;-36.854;174.870;2023-08-31T14:43:30;2.83;;;1.87;;
19643;SDS011;9970;-36.854;174.870;2023-08-31T14:46:04;2.43;;;1.90;;
19643;SDS011;9970;-36.854;174.870;2023-08-31T14:48:38;2.80;;;2.07;;
19643;SDS011;9970;-36.854;174.870;2023-08-31T14:51:11;3.27;;;2.43;;
19643;SDS011;9970;-36.854;174.870;2023-08-31T14:53:44;4.03;;;3.30;;
19643;SDS011;9970;-36.854;174.870;2023-08-31T14:56:17;5.53;;;2.70;;
19643;SDS011;9970;-36.854;174.870;2023-08-31T14:58:50;2.93;;;2.73;;
19643;SDS011;9970;-36.854;174.870;2023-08-31T15:01:23;2.83;;;2.73;;
19643;SDS011;9970;-36.854;174.870;2023-08-31T15:03:55;3.10;;;2.80;;
19643;SDS011;9970;-36.854;174.870;2023-08-31T15:06:28;5.43;;;3.53;;
19643;SDS011;9970;-36.854;174.870;2023-08-31T15:09:02;4.73;;;2.73;;
19643;SDS011;9970;-36.854;174.870;2023-08-31T15:11:36;2.90;;;2.70;;
19643;SDS011;9970;-36.854;174.870;2023-08-31T15:14:09;8.50;;;3.17;;
19643;SDS011;9970;-36.854;174.870;2023-08-31T15:16:42;2.90;;;2.70;;
19643;SDS011;9970;-36.854;174.870;2023-08-31T15:19:15;2.23;;;2.13;;
19643;SDS011;9970;-36.854;174.870;2023-08-31T15:21:48;2.40;;;2.20;;
19643;SDS011;9970;-36.854;174.870;2023-08-31T15:24:21;3.07;;;2.87;;
19643;SDS011;9970;-36.854;174.870;2023-08-31T15:26:54;4.60;;;2.90;;